Time,TemperatureF,DewpointF,PressureIn,WindDirection,WindDirectionDegrees,WindSpeedMPH,WindSpeedGustMPH,Humidity,HourlyPrecipIn,Conditions,Clouds,dailyrainin,SoftwareType,DateUTC
2013-07-06 00:12:00,72.0,49.0,-100.00,South,185,14.0,16.0,43,0.00,,,0.00,,2013-07-06 06:12:00,
2013-07-06 00:22:00,72.0,49.0,-100.00,South,185,14.0,16.0,43,0.00,,,0.00,,2013-07-06 06:22:00,
2013-07-06 01:44:00,69.0,50.0,-100.00,South,178,7.0,11.0,51,0.00,,,0.00,,2013-07-06 07:44:00,
2013-07-06 01:52:00,69.0,50.0,-100.00,South,178,7.0,11.0,51,0.00,,,0.00,,2013-07-06 07:52:00,
2013-07-06 02:02:00,67.0,52.0,-100.00,South,178,7.0,9.0,58,0.00,,,0.00,,2013-07-06 08:02:00,
2013-07-06 02:11:00,67.0,51.0,-100.00,SSE,167,9.0,11.0,54,0.00,,,0.00,,2013-07-06 08:11:00,
2013-07-06 02:21:00,67.0,51.0,-100.00,SSE,167,9.0,11.0,54,0.00,,,0.00,,2013-07-06 08:21:00,
2013-07-06 02:33:00,67.0,51.0,-100.00,SSE,167,9.0,11.0,54,0.00,,,0.00,,2013-07-06 08:33:00,
2013-07-06 02:43:00,65.0,52.0,-100.00,SW,223,3.0,5.0,62,0.00,,,0.00,,2013-07-06 08:43:00,
2013-07-06 02:54:00,65.0,52.0,-100.00,SW,223,3.0,5.0,62,0.00,,,0.00,,2013-07-06 08:54:00,
2013-07-06 03:11:00,66.0,51.0,-100.00,South,188,5.0,6.0,58,0.00,,,0.00,,2013-07-06 09:11:00,
2013-07-06 03:33:00,65.0,51.0,-100.00,South,191,6.0,8.0,60,0.00,,,0.00,,2013-07-06 09:33:00,
2013-07-06 03:43:00,67.0,51.0,-100.00,SSE,168,8.0,10.0,56,0.00,,,0.00,,2013-07-06 09:43:00,
2013-07-06 04:33:00,65.0,52.0,-100.00,South,191,10.0,13.0,63,0.00,,,0.00,,2013-07-06 10:33:00,
2013-07-06 04:42:00,65.0,51.0,-100.00,South,189,6.0,7.0,60,0.00,,,0.00,,2013-07-06 10:42:00,
2013-07-06 05:42:00,68.0,51.0,-100.00,South,185,8.0,11.0,53,0.00,,,0.00,,2013-07-06 11:42:00,
2013-07-06 05:53:00,68.0,51.0,-100.00,South,185,8.0,11.0,53,0.00,,,0.00,,2013-07-06 11:53:00,
2013-07-06 06:01:00,68.0,51.0,-100.00,South,185,8.0,11.0,53,0.00,,,0.00,,2013-07-06 12:01:00,
2013-07-06 06:43:00,65.0,52.0,-100.00,South,185,8.0,10.0,61,0.00,,,0.00,,2013-07-06 12:43:00,
2013-07-06 07:01:00,65.0,52.0,-100.00,South,185,8.0,10.0,61,0.00,,,0.00,,2013-07-06 13:01:00,
2013-07-06 07:22:00,62.0,53.0,-100.00,South,182,9.0,12.0,71,0.00,,,0.00,,2013-07-06 13:22:00,
2013-07-06 07:33:00,63.0,53.0,-100.00,South,179,9.0,12.0,68,0.00,,,0.00,,2013-07-06 13:33:00,
2013-07-06 07:52:00,67.0,53.0,-100.00,South,172,10.0,13.0,59,0.00,,,0.00,,2013-07-06 13:52:00,
2013-07-06 08:22:00,69.0,54.0,-100.00,NW,322,4.0,6.0,59,0.00,,,0.00,,2013-07-06 14:22:00,
2013-07-06 08:42:00,68.0,54.0,-100.00,North,357,4.0,6.0,60,0.00,,,0.00,,2013-07-06 14:42:00,
2013-07-06 09:02:00,69.0,55.0,-100.00,NNW,346,3.0,5.0,61,0.00,,,0.00,,2013-07-06 15:02:00,
2013-07-06 09:12:00,69.0,55.0,-100.00,NNW,346,3.0,5.0,61,0.00,,,0.00,,2013-07-06 15:12:00,
2013-07-06 09:33:00,71.0,56.0,-100.00,NW,306,4.0,5.0,59,0.00,,,0.00,,2013-07-06 15:33:00,
2013-07-06 09:43:00,71.0,55.0,-100.00,NW,306,3.0,5.0,57,0.00,,,0.00,,2013-07-06 15:43:00,
2013-07-06 09:53:00,71.0,55.0,-100.00,NW,306,3.0,5.0,57,0.00,,,0.00,,2013-07-06 15:53:00,
2013-07-06 10:03:00,74.0,56.0,-100.00,NW,326,2.0,3.0,52,0.00,,,0.00,,2013-07-06 16:03:00,
2013-07-06 10:12:00,75.0,56.0,-100.00,North,359,2.0,4.0,51,0.00,,,0.00,,2013-07-06 16:12:00,
2013-07-06 10:22:00,75.0,56.0,-100.00,North,359,2.0,4.0,51,0.00,,,0.00,,2013-07-06 16:22:00,
2013-07-06 10:35:00,75.0,56.0,-100.00,North,359,2.0,4.0,51,0.00,,,0.00,,2013-07-06 16:35:00,
2013-07-06 11:06:00,80.0,54.0,-100.00,SSW,205,8.0,12.0,41,0.00,,,0.00,,2013-07-06 17:06:00,
2013-07-06 11:15:00,80.0,54.0,-100.00,SSW,205,8.0,12.0,41,0.00,,,0.00,,2013-07-06 17:15:00,
2013-07-06 11:25:00,80.0,54.0,-100.00,SSW,205,8.0,12.0,41,0.00,,,0.00,,2013-07-06 17:25:00,
2013-07-06 11:57:00,81.0,55.0,-100.00,SSW,196,8.0,11.0,40,0.00,,,0.00,,2013-07-06 17:57:00,
2013-07-06 12:04:00,83.0,54.0,-100.00,South,172,6.0,11.0,37,0.00,,,0.00,,2013-07-06 18:04:00,
2013-07-06 12:17:00,82.0,55.0,-100.00,SSW,195,10.0,16.0,40,0.00,,,0.00,,2013-07-06 18:17:00,
2013-07-06 12:27:00,82.0,55.0,-100.00,SSW,195,10.0,16.0,40,0.00,,,0.00,,2013-07-06 18:27:00,
2013-07-06 12:37:00,82.0,55.0,-100.00,SSW,195,10.0,16.0,40,0.00,,,0.00,,2013-07-06 18:37:00,
2013-07-06 12:46:00,84.0,54.0,-100.00,South,184,12.0,17.0,36,0.00,,,0.00,,2013-07-06 18:46:00,
2013-07-06 13:06:00,83.0,55.0,-100.00,South,189,13.0,19.0,38,0.00,,,0.00,,2013-07-06 19:06:00,
2013-07-06 13:35:00,85.0,54.0,-100.00,SSW,195,16.0,23.0,34,0.00,,,0.00,,2013-07-06 19:35:00,
2013-07-06 13:56:00,85.0,54.0,-100.00,South,189,13.0,17.0,34,0.00,,,0.00,,2013-07-06 19:56:00,
2013-07-06 14:03:00,85.0,54.0,-100.00,South,181,15.0,20.0,34,0.00,,,0.00,,2013-07-06 20:03:00,
2013-07-06 14:14:00,85.0,54.0,-100.00,South,178,11.0,17.0,35,0.00,,,0.00,,2013-07-06 20:14:00,
2013-07-06 14:26:00,85.0,54.0,-100.00,South,178,11.0,17.0,35,0.00,,,0.00,,2013-07-06 20:26:00,
2013-07-06 14:36:00,85.0,54.0,-100.00,South,178,11.0,17.0,35,0.00,,,0.00,,2013-07-06 20:36:00,
2013-07-06 15:05:00,84.0,53.0,-100.00,SW,226,8.0,13.0,34,0.00,,,0.00,,2013-07-06 21:05:00,
2013-07-06 15:14:00,89.0,51.0,-100.00,South,179,4.0,8.0,27,0.00,,,0.00,,2013-07-06 21:14:00,
2013-07-06 15:38:00,89.0,48.0,-100.00,SW,219,9.0,12.0,25,0.00,,,0.00,,2013-07-06 21:38:00,
2013-07-06 15:46:00,89.0,48.0,-100.00,SW,219,9.0,12.0,25,0.00,,,0.00,,2013-07-06 21:46:00,
2013-07-06 16:04:00,87.0,49.0,-100.00,SW,217,9.0,17.0,27,0.00,,,0.00,,2013-07-06 22:04:00,
2013-07-06 16:17:00,86.0,50.0,-100.00,WSW,241,7.0,13.0,28,0.00,,,0.00,,2013-07-06 22:17:00,
2013-07-06 16:25:00,86.0,50.0,-100.00,WSW,241,7.0,13.0,28,0.00,,,0.00,,2013-07-06 22:25:00,
2013-07-06 16:46:00,86.0,51.0,-100.00,West,280,6.0,11.0,31,0.00,,,0.00,,2013-07-06 22:46:00,
2013-07-06 17:06:00,84.0,55.0,-100.00,NW,320,4.0,8.0,37,0.00,,,0.00,,2013-07-06 23:06:00,
2013-07-06 17:14:00,79.0,53.0,-100.00,NE,38,10.0,17.0,41,0.00,,,0.04,,2013-07-06 23:14:00,
2013-07-06 18:04:00,74.0,59.0,-100.00,West,263,2.0,6.0,59,0.03,,,0.05,,2013-07-07 00:04:00,
2013-07-06 18:37:00,75.0,46.0,-100.00,WSW,254,13.0,25.0,35,0.00,,,0.08,,2013-07-07 00:37:00,
2013-07-06 18:46:00,75.0,46.0,-100.00,WSW,254,13.0,25.0,35,0.00,,,0.08,,2013-07-07 00:46:00,
2013-07-06 19:15:00,74.0,50.0,-100.00,SSE,165,13.0,17.0,43,0.00,,,0.10,,2013-07-07 01:15:00,
2013-07-06 19:33:00,74.0,50.0,-100.00,SSE,165,13.0,17.0,43,0.00,,,0.10,,2013-07-07 01:33:00,
2013-07-06 19:45:00,73.0,50.0,-100.00,South,171,11.0,13.0,44,0.00,,,0.10,,2013-07-07 01:45:00,
2013-07-06 20:04:00,73.0,50.0,-100.00,South,171,11.0,13.0,44,0.00,,,0.10,,2013-07-07 02:04:00,
2013-07-06 20:32:00,77.0,47.0,-100.00,SSE,162,11.0,15.0,34,0.00,,,0.10,,2013-07-07 02:32:00,
2013-07-06 20:43:00,79.0,46.0,-100.00,SSE,152,13.0,17.0,32,0.00,,,0.10,,2013-07-07 02:43:00,
2013-07-06 21:02:00,79.0,44.0,-100.00,SSE,167,13.0,19.0,29,0.00,,,0.10,,2013-07-07 03:02:00,
2013-07-06 21:23:00,80.0,44.0,-100.00,SSE,165,10.0,13.0,28,0.00,,,0.10,,2013-07-07 03:23:00,
2013-07-06 21:32:00,80.0,43.0,-100.00,SSE,151,8.0,12.0,27,0.00,,,0.10,,2013-07-07 03:32:00,
2013-07-06 21:43:00,80.0,42.0,-100.00,SSE,168,9.0,13.0,26,0.00,,,0.10,,2013-07-07 03:43:00,
2013-07-06 21:59:00,80.0,42.0,-100.00,SSE,168,9.0,13.0,26,0.00,,,0.10,,2013-07-07 03:59:00,
2013-07-06 22:01:00,78.0,43.0,-100.00,South,175,14.0,19.0,28,0.00,,,0.10,,2013-07-07 04:01:00,
2013-07-06 22:11:00,78.0,43.0,-100.00,South,178,13.0,16.0,29,0.00,,,0.10,,2013-07-07 04:11:00,
2013-07-06 22:21:00,78.0,43.0,-100.00,South,178,13.0,16.0,29,0.00,,,0.10,,2013-07-07 04:21:00,
2013-07-06 22:31:00,77.0,43.0,-100.00,SSE,168,9.0,11.0,30,0.00,,,0.10,,2013-07-07 04:31:00,
2013-07-06 22:41:00,77.0,43.0,-100.00,SSE,168,9.0,11.0,30,0.00,,,0.10,,2013-07-07 04:41:00,
2013-07-06 22:51:00,76.0,44.0,-100.00,South,172,5.0,7.0,32,0.00,,,0.10,,2013-07-07 04:51:00,
2013-07-06 23:01:00,76.0,44.0,-100.00,South,172,5.0,7.0,32,0.00,,,0.10,,2013-07-07 05:01:00,
2013-07-06 23:11:00,76.0,44.0,-100.00,SSW,193,7.0,11.0,31,0.00,,,0.10,,2013-07-07 05:11:00,
2013-07-06 23:21:00,76.0,44.0,-100.00,SSW,193,7.0,11.0,31,0.00,,,0.10,,2013-07-07 05:21:00,
2013-07-06 23:31:00,74.0,45.0,-100.00,SSW,209,3.0,4.0,35,0.00,,,0.10,,2013-07-07 05:31:00,
2013-07-06 23:51:00,78.0,42.0,-100.00,South,178,15.0,19.0,28,0.00,,,0.10,,2013-07-07 05:51:00,